sensor_id;sensor_type;location;lat;lon;timestamp;temperature;humidity
3684;DHT22;1858;48.716;9.648;2023-03-23T00:01:50;12.10;99.90
3684;DHT22;1858;48.716;9.648;2023-03-23T00:04:19;12.00;1.00
3684;DHT22;1858;48.716;9.648;2023-03-23T00:06:48;12.00;1.00
3684;DHT22;1858;48.716;9.648;2023-03-23T00:09:16;11.90;1.00
3684;DHT22;1858;48.716;9.648;2023-03-23T00:11:46;11.90;1.00
3684;DHT22;1858;48.716;9.648;2023-03-23T00:14:15;11.90;1.00
3684;DHT22;1858;48.716;9.648;2023-03-23T00:16:43;11.90;1.00
3684;DHT22;1858;48.716;9.648;2023-03-23T00:19:12;11.90;1.00
3684;DHT22;1858;48.716;9.648;2023-03-23T00:21:42;11.90;1.00
3684;DHT22;1858;48.716;9.648;2023-03-23T00:24:18;12.00;1.00
3684;DHT22;1858;48.716;9.648;2023-03-23T00:26:48;12.10;99.90
3684;DHT22;1858;48.716;9.648;2023-03-23T00:29:20;12.10;99.90
3684;DHT22;1858;48.716;9.648;2023-03-23T00:31:50;12.20;99.90
3684;DHT22;1858;48.716;9.648;2023-03-23T00:34:20;12.20;99.90
3684;DHT22;1858;48.716;9.648;2023-03-23T00:36:53;12.20;99.90
3684;DHT22;1858;48.716;9.648;2023-03-23T00:39:26;12.20;1.00
3684;DHT22;1858;48.716;9.648;2023-03-23T00:41:55;12.30;1.00
3684;DHT22;1858;48.716;9.648;2023-03-23T00:44:26;12.40;1.00
3684;DHT22;1858;48.716;9.648;2023-03-23T00:46:55;12.30;1.00
3684;DHT22;1858;48.716;9.648;2023-03-23T00:49:25;12.20;1.00
3684;DHT22;1858;48.716;9.648;2023-03-23T00:51:55;12.10;1.00
3684;DHT22;1858;48.716;9.648;2023-03-23T00:54:24;12.20;1.00
3684;DHT22;1858;48.716;9.648;2023-03-23T00:56:53;12.20;1.00
3684;DHT22;1858;48.716;9.648;2023-03-23T00:59:24;12.20;1.00
3684;DHT22;1858;48.716;9.648;2023-03-23T01:01:52;12.20;1.00
3684;DHT22;1858;48.716;9.648;2023-03-23T01:04:21;12.20;1.00
3684;DHT22;1858;48.716;9.648;2023-03-23T01:06:50;12.30;1.00
3684;DHT22;1858;48.716;9.648;2023-03-23T01:09:19;12.30;1.00
3684;DHT22;1858;48.716;9.648;2023-03-23T01:11:51;12.30;1.00
3684;DHT22;1858;48.716;9.648;2023-03-23T01:14:20;12.20;1.00
3684;DHT22;1858;48.716;9.648;2023-03-23T01:16:48;12.20;1.00
3684;DHT22;1858;48.716;9.648;2023-03-23T01:19:17;12.20;1.00
3684;DHT22;1858;48.716;9.648;2023-03-23T01:21:46;12.10;1.00
3684;DHT22;1858;48.716;9.648;2023-03-23T01:24:14;12.00;1.00
3684;DHT22;1858;48.716;9.648;2023-03-23T01:26:43;12.10;1.00
3684;DHT22;1858;48.716;9.648;2023-03-23T01:29:11;12.10;1.00
3684;DHT22;1858;48.716;9.648;2023-03-23T01:31:41;12.10;1.00
3684;DHT22;1858;48.716;9.648;2023-03-23T01:36:57;12.10;1.00
3684;DHT22;1858;48.716;9.648;2023-03-23T01:39:25;12.20;1.00
3684;DHT22;1858;48.716;9.648;2023-03-23T01:41:54;12.20;1.00
3684;DHT22;1858;48.716;9.648;2023-03-23T01:46:54;12.20;1.00
3684;DHT22;1858;48.716;9.648;2023-03-23T01:49:29;12.20;1.00
3684;DHT22;1858;48.716;9.648;2023-03-23T01:52:04;12.20;1.00
3684;DHT22;1858;48.716;9.648;2023-03-23T01:54:34;12.10;1.00
3684;DHT22;1858;48.716;9.648;2023-03-23T01:57:11;12.10;1.00
3684;DHT22;1858;48.716;9.648;2023-03-23T01:59:35;11.90;1.00
3684;DHT22;1858;48.716;9.648;2023-03-23T02:02:04;11.80;1.00
3684;DHT22;1858;48.716;9.648;2023-03-23T02:04:34;11.80;1.00
3684;DHT22;1858;48.716;9.648;2023-03-23T02:07:03;11.90;1.00
3684;DHT22;1858;48.716;9.648;2023-03-23T02:09:31;11.90;1.00
3684;DHT22;1858;48.716;9.648;2023-03-23T02:12:00;12.00;1.00
3684;DHT22;1858;48.716;9.648;2023-03-23T02:14:29;12.10;1.00
3684;DHT22;1858;48.716;9.648;2023-03-23T02:20:19;12.10;1.00
3684;DHT22;1858;48.716;9.648;2023-03-23T02:28:31;11.60;1.00
3684;DHT22;1858;48.716;9.648;2023-03-23T02:31:21;11.70;1.00
3684;DHT22;1858;48.716;9.648;2023-03-23T02:33:58;11.70;1.00
3684;DHT22;1858;48.716;9.648;2023-03-23T02:36:48;11.90;1.00
3684;DHT22;1858;48.716;9.648;2023-03-23T02:39:29;11.90;1.00
3684;DHT22;1858;48.716;9.648;2023-03-23T02:42:04;12.00;1.00
3684;DHT22;1858;48.716;9.648;2023-03-23T02:44:30;12.00;1.00
3684;DHT22;1858;48.716;9.648;2023-03-23T02:47:00;11.90;1.00
3684;DHT22;1858;48.716;9.648;2023-03-23T02:49:40;11.90;1.00
3684;DHT22;1858;48.716;9.648;2023-03-23T02:52:12;12.00;1.00
3684;DHT22;1858;48.716;9.648;2023-03-23T02:54:45;12.00;1.00
3684;DHT22;1858;48.716;9.648;2023-03-23T02:57:15;11.90;1.00
3684;DHT22;1858;48.716;9.648;2023-03-23T02:59:45;11.80;1.00
3684;DHT22;1858;48.716;9.648;2023-03-23T03:02:28;11.90;1.00
3684;DHT22;1858;48.716;9.648;2023-03-23T03:05:01;12.00;1.00
3684;DHT22;1858;48.716;9.648;2023-03-23T03:07:44;12.10;1.00
3684;DHT22;1858;48.716;9.648;2023-03-23T03:21:26;12.20;1.00
3684;DHT22;1858;48.716;9.648;2023-03-23T03:23:58;12.20;1.00
3684;DHT22;1858;48.716;9.648;2023-03-23T03:26:30;12.30;1.00
3684;DHT22;1858;48.716;9.648;2023-03-23T03:28:59;12.30;1.00
3684;DHT22;1858;48.716;9.648;2023-03-23T03:31:31;12.20;1.00
3684;DHT22;1858;48.716;9.648;2023-03-23T03:33:59;12.30;1.00
3684;DHT22;1858;48.716;9.648;2023-03-23T03:36:32;12.20;1.00
3684;DHT22;1858;48.716;9.648;2023-03-23T03:39:07;12.10;1.00
3684;DHT22;1858;48.716;9.648;2023-03-23T03:41:38;12.10;1.00
3684;DHT22;1858;48.716;9.648;2023-03-23T03:44:07;12.10;1.00
3684;DHT22;1858;48.716;9.648;2023-03-23T03:46:36;12.10;1.00
3684;DHT22;1858;48.716;9.648;2023-03-23T03:49:07;12.20;1.00
3684;DHT22;1858;48.716;9.648;2023-03-23T03:51:36;12.10;1.00
3684;DHT22;1858;48.716;9.648;2023-03-23T03:54:04;12.10;1.00
3684;DHT22;1858;48.716;9.648;2023-03-23T03:56:33;12.10;1.00
3684;DHT22;1858;48.716;9.648;2023-03-23T03:59:07;12.10;1.00
3684;DHT22;1858;48.716;9.648;2023-03-23T04:01:38;12.10;1.00
3684;DHT22;1858;48.716;9.648;2023-03-23T04:04:06;12.10;1.00
3684;DHT22;1858;48.716;9.648;2023-03-23T04:06:35;12.20;1.00
3684;DHT22;1858;48.716;9.648;2023-03-23T04:09:06;12.20;1.00
3684;DHT22;1858;48.716;9.648;2023-03-23T04:11:35;12.20;1.00
3684;DHT22;1858;48.716;9.648;2023-03-23T04:14:03;12.30;1.00
3684;DHT22;1858;48.716;9.648;2023-03-23T04:16:32;12.20;1.00
3684;DHT22;1858;48.716;9.648;2023-03-23T04:19:02;12.10;1.00
3684;DHT22;1858;48.716;9.648;2023-03-23T04:21:31;12.10;1.00
3684;DHT22;1858;48.716;9.648;2023-03-23T04:23:59;12.10;1.00
3684;DHT22;1858;48.716;9.648;2023-03-23T04:26:28;12.10;1.00
3684;DHT22;1858;48.716;9.648;2023-03-23T04:28:57;12.10;1.00
3684;DHT22;1858;48.716;9.648;2023-03-23T04:31:26;12.20;1.00
3684;DHT22;1858;48.716;9.648;2023-03-23T04:33:54;12.20;1.00
3684;DHT22;1858;48.716;9.648;2023-03-23T04:36:23;12.30;1.00
3684;DHT22;1858;48.716;9.648;2023-03-23T04:38:51;12.30;1.00
3684;DHT22;1858;48.716;9.648;2023-03-23T04:44:12;12.30;1.00
3684;DHT22;1858;48.716;9.648;2023-03-23T04:46:43;12.30;1.00
3684;DHT22;1858;48.716;9.648;2023-03-23T04:49:14;12.40;1.00
3684;DHT22;1858;48.716;9.648;2023-03-23T04:51:44;12.40;1.00
3684;DHT22;1858;48.716;9.648;2023-03-23T04:54:13;12.40;1.00
3684;DHT22;1858;48.716;9.648;2023-03-23T04:56:42;12.40;1.00
3684;DHT22;1858;48.716;9.648;2023-03-23T04:59:10;12.50;1.00
3684;DHT22;1858;48.716;9.648;2023-03-23T05:01:41;12.40;1.00
3684;DHT22;1858;48.716;9.648;2023-03-23T05:04:11;12.40;1.00
3684;DHT22;1858;48.716;9.648;2023-03-23T05:06:41;12.40;1.00
3684;DHT22;1858;48.716;9.648;2023-03-23T05:09:11;12.40;1.00
3684;DHT22;1858;48.716;9.648;2023-03-23T05:11:40;12.40;1.00
3684;DHT22;1858;48.716;9.648;2023-03-23T05:14:09;12.40;1.00
3684;DHT22;1858;48.716;9.648;2023-03-23T05:16:38;12.50;1.00
3684;DHT22;1858;48.716;9.648;2023-03-23T05:19:08;12.50;1.00
3684;DHT22;1858;48.716;9.648;2023-03-23T05:21:37;12.50;1.00
3684;DHT22;1858;48.716;9.648;2023-03-23T05:24:08;12.60;1.00
3684;DHT22;1858;48.716;9.648;2023-03-23T05:26:37;12.60;1.00
3684;DHT22;1858;48.716;9.648;2023-03-23T05:29:05;12.70;1.00
3684;DHT22;1858;48.716;9.648;2023-03-23T05:31:33;12.70;1.00
3684;DHT22;1858;48.716;9.648;2023-03-23T05:34:02;12.70;1.00
3684;DHT22;1858;48.716;9.648;2023-03-23T05:36:35;12.80;1.00
3684;DHT22;1858;48.716;9.648;2023-03-23T05:39:04;12.80;1.00
3684;DHT22;1858;48.716;9.648;2023-03-23T05:41:34;12.90;1.00
3684;DHT22;1858;48.716;9.648;2023-03-23T05:44:05;12.90;1.00
3684;DHT22;1858;48.716;9.648;2023-03-23T05:46:36;12.90;1.00
3684;DHT22;1858;48.716;9.648;2023-03-23T05:49:05;13.00;1.00
3684;DHT22;1858;48.716;9.648;2023-03-23T05:51:35;13.00;1.00
3684;DHT22;1858;48.716;9.648;2023-03-23T05:54:04;13.10;1.00
3684;DHT22;1858;48.716;9.648;2023-03-23T05:56:34;13.20;1.00
3684;DHT22;1858;48.716;9.648;2023-03-23T05:59:03;13.20;1.00
3684;DHT22;1858;48.716;9.648;2023-03-23T06:01:32;13.20;1.00
3684;DHT22;1858;48.716;9.648;2023-03-23T06:04:00;13.30;1.00
3684;DHT22;1858;48.716;9.648;2023-03-23T06:06:30;13.30;1.00
3684;DHT22;1858;48.716;9.648;2023-03-23T06:08:59;13.40;1.00
3684;DHT22;1858;48.716;9.648;2023-03-23T06:11:29;13.50;1.00
3684;DHT22;1858;48.716;9.648;2023-03-23T06:13:58;13.50;1.00
3684;DHT22;1858;48.716;9.648;2023-03-23T06:16:27;13.60;1.00
3684;DHT22;1858;48.716;9.648;2023-03-23T06:18:55;13.70;1.00
3684;DHT22;1858;48.716;9.648;2023-03-23T06:21:25;13.70;1.00
3684;DHT22;1858;48.716;9.648;2023-03-23T06:23:56;13.70;1.00
3684;DHT22;1858;48.716;9.648;2023-03-23T06:26:29;13.80;1.00
3684;DHT22;1858;48.716;9.648;2023-03-23T06:28:58;13.90;1.00
3684;DHT22;1858;48.716;9.648;2023-03-23T06:31:27;13.90;1.00
3684;DHT22;1858;48.716;9.648;2023-03-23T06:33:56;14.00;1.00
3684;DHT22;1858;48.716;9.648;2023-03-23T06:36:25;14.10;1.00
3684;DHT22;1858;48.716;9.648;2023-03-23T06:38:54;14.20;1.00
3684;DHT22;1858;48.716;9.648;2023-03-23T06:41:23;14.30;1.00
3684;DHT22;1858;48.716;9.648;2023-03-23T06:43:52;14.40;1.00
3684;DHT22;1858;48.716;9.648;2023-03-23T06:46:22;14.40;1.00
3684;DHT22;1858;48.716;9.648;2023-03-23T06:48:52;14.40;1.00
3684;DHT22;1858;48.716;9.648;2023-03-23T06:51:22;14.40;1.00
3684;DHT22;1858;48.716;9.648;2023-03-23T06:53:50;14.40;1.00
3684;DHT22;1858;48.716;9.648;2023-03-23T06:56:22;14.40;1.00
3684;DHT22;1858;48.716;9.648;2023-03-23T06:58:52;14.50;1.00
3684;DHT22;1858;48.716;9.648;2023-03-23T07:01:21;14.60;1.00
3684;DHT22;1858;48.716;9.648;2023-03-23T07:03:49;14.60;1.00
3684;DHT22;1858;48.716;9.648;2023-03-23T07:06:19;14.60;1.00
3684;DHT22;1858;48.716;9.648;2023-03-23T07:08:49;14.60;1.00
3684;DHT22;1858;48.716;9.648;2023-03-23T07:11:17;14.70;1.00
3684;DHT22;1858;48.716;9.648;2023-03-23T07:13:48;14.70;1.00
3684;DHT22;1858;48.716;9.648;2023-03-23T07:16:18;14.80;1.00
3684;DHT22;1858;48.716;9.648;2023-03-23T07:18:47;14.80;1.00
3684;DHT22;1858;48.716;9.648;2023-03-23T07:21:16;14.90;1.00
3684;DHT22;1858;48.716;9.648;2023-03-23T07:23:45;15.00;1.00
3684;DHT22;1858;48.716;9.648;2023-03-23T07:26:14;15.10;1.00
3684;DHT22;1858;48.716;9.648;2023-03-23T07:28:46;15.20;1.00
3684;DHT22;1858;48.716;9.648;2023-03-23T07:31:19;15.40;1.00
3684;DHT22;1858;48.716;9.648;2023-03-23T07:33:48;15.50;1.00
3684;DHT22;1858;48.716;9.648;2023-03-23T07:36:31;15.60;1.00
3684;DHT22;1858;48.716;9.648;2023-03-23T07:38:49;15.60;1.00
3684;DHT22;1858;48.716;9.648;2023-03-23T07:41:19;15.80;1.00
3684;DHT22;1858;48.716;9.648;2023-03-23T07:43:48;15.90;1.00
3684;DHT22;1858;48.716;9.648;2023-03-23T07:46:17;16.10;1.00
3684;DHT22;1858;48.716;9.648;2023-03-23T07:48:52;16.20;1.00
3684;DHT22;1858;48.716;9.648;2023-03-23T07:51:22;16.30;1.00
3684;DHT22;1858;48.716;9.648;2023-03-23T07:53:51;16.40;1.00
3684;DHT22;1858;48.716;9.648;2023-03-23T07:56:20;16.30;99.90
3684;DHT22;1858;48.716;9.648;2023-03-23T07:58:51;16.10;99.90
3684;DHT22;1858;48.716;9.648;2023-03-23T08:01:18;16.10;99.90
3684;DHT22;1858;48.716;9.648;2023-03-23T08:03:48;16.10;1.00
3684;DHT22;1858;48.716;9.648;2023-03-23T08:06:18;16.00;99.90
3684;DHT22;1858;48.716;9.648;2023-03-23T08:08:46;16.00;99.90
3684;DHT22;1858;48.716;9.648;2023-03-23T08:11:17;16.10;1.00
3684;DHT22;1858;48.716;9.648;2023-03-23T08:13:47;16.10;1.40
3684;DHT22;1858;48.716;9.648;2023-03-23T08:16:15;16.20;99.90
3684;DHT22;1858;48.716;9.648;2023-03-23T08:18:52;16.30;99.90
3684;DHT22;1858;48.716;9.648;2023-03-23T08:21:19;16.50;99.90
3684;DHT22;1858;48.716;9.648;2023-03-23T08:23:50;16.60;99.90
3684;DHT22;1858;48.716;9.648;2023-03-23T08:26:20;16.70;99.90
3684;DHT22;1858;48.716;9.648;2023-03-23T08:28:50;16.90;99.90
3684;DHT22;1858;48.716;9.648;2023-03-23T08:31:19;17.00;99.90
3684;DHT22;1858;48.716;9.648;2023-03-23T08:33:48;17.10;99.90
3684;DHT22;1858;48.716;9.648;2023-03-23T08:36:19;17.30;99.90
3684;DHT22;1858;48.716;9.648;2023-03-23T08:38:48;17.40;99.90
3684;DHT22;1858;48.716;9.648;2023-03-23T08:41:20;17.50;99.90
3684;DHT22;1858;48.716;9.648;2023-03-23T08:43:50;17.70;99.90
3684;DHT22;1858;48.716;9.648;2023-03-23T08:46:21;18.00;99.90
3684;DHT22;1858;48.716;9.648;2023-03-23T08:48:55;18.50;99.90
3684;DHT22;1858;48.716;9.648;2023-03-23T08:51:28;19.00;99.90
3684;DHT22;1858;48.716;9.648;2023-03-23T08:54:00;19.50;99.90
3684;DHT22;1858;48.716;9.648;2023-03-23T08:56:30;19.80;99.90
3684;DHT22;1858;48.716;9.648;2023-03-23T08:58:59;19.90;99.90
3684;DHT22;1858;48.716;9.648;2023-03-23T09:01:29;20.20;99.90
3684;DHT22;1858;48.716;9.648;2023-03-23T09:04:00;20.40;99.90
3684;DHT22;1858;48.716;9.648;2023-03-23T09:06:29;20.70;99.90
3684;DHT22;1858;48.716;9.648;2023-03-23T09:09:00;20.50;99.90
3684;DHT22;1858;48.716;9.648;2023-03-23T09:11:30;20.20;99.90
3684;DHT22;1858;48.716;9.648;2023-03-23T09:13:59;19.80;99.90
3684;DHT22;1858;48.716;9.648;2023-03-23T09:16:28;19.50;99.90
3684;DHT22;1858;48.716;9.648;2023-03-23T09:18:57;19.30;99.90
3684;DHT22;1858;48.716;9.648;2023-03-23T09:21:27;19.00;99.90
3684;DHT22;1858;48.716;9.648;2023-03-23T09:23:57;18.80;99.90
3684;DHT22;1858;48.716;9.648;2023-03-23T09:26:26;18.60;99.90
3684;DHT22;1858;48.716;9.648;2023-03-23T09:31:48;18.30;99.90
3684;DHT22;1858;48.716;9.648;2023-03-23T09:34:17;18.20;99.90
3684;DHT22;1858;48.716;9.648;2023-03-23T09:36:49;18.20;99.90
3684;DHT22;1858;48.716;9.648;2023-03-23T09:39:19;18.00;99.90
3684;DHT22;1858;48.716;9.648;2023-03-23T09:44:50;17.80;99.90
3684;DHT22;1858;48.716;9.648;2023-03-23T09:47:38;17.90;99.90
3684;DHT22;1858;48.716;9.648;2023-03-23T09:50:17;17.90;99.90
3684;DHT22;1858;48.716;9.648;2023-03-23T09:52:58;17.80;99.90
3684;DHT22;1858;48.716;9.648;2023-03-23T09:55:29;17.80;99.90
3684;DHT22;1858;48.716;9.648;2023-03-23T10:03:42;18.00;99.90
3684;DHT22;1858;48.716;9.648;2023-03-23T10:06:14;18.10;99.90
3684;DHT22;1858;48.716;9.648;2023-03-23T10:08:51;18.10;99.90
3684;DHT22;1858;48.716;9.648;2023-03-23T10:17:13;17.90;99.90
3684;DHT22;1858;48.716;9.648;2023-03-23T13:18:02;20.90;99.90
3684;DHT22;1858;48.716;9.648;2023-03-23T13:20:37;20.90;99.90
3684;DHT22;1858;48.716;9.648;2023-03-23T13:23:14;21.00;99.90
3684;DHT22;1858;48.716;9.648;2023-03-23T13:28:26;20.90;99.90
3684;DHT22;1858;48.716;9.648;2023-03-23T13:31:16;20.70;99.90
3684;DHT22;1858;48.716;9.648;2023-03-23T13:33:51;20.70;99.90
3684;DHT22;1858;48.716;9.648;2023-03-23T13:36:42;20.80;99.90
3684;DHT22;1858;48.716;9.648;2023-03-23T13:38:54;20.70;99.90
3684;DHT22;1858;48.716;9.648;2023-03-23T13:41:26;20.60;99.90
3684;DHT22;1858;48.716;9.648;2023-03-23T13:44:15;20.60;99.90
3684;DHT22;1858;48.716;9.648;2023-03-23T13:46:53;20.60;99.90
3684;DHT22;1858;48.716;9.648;2023-03-23T13:49:23;20.60;99.90
3684;DHT22;1858;48.716;9.648;2023-03-23T13:52:05;20.60;99.90
3684;DHT22;1858;48.716;9.648;2023-03-23T13:54:45;20.60;99.90
3684;DHT22;1858;48.716;9.648;2023-03-23T13:57:36;20.70;99.90
3684;DHT22;1858;48.716;9.648;2023-03-23T14:03:25;20.50;99.90
3684;DHT22;1858;48.716;9.648;2023-03-23T14:17:46;19.90;99.90
3684;DHT22;1858;48.716;9.648;2023-03-23T14:20:32;20.00;99.90
3684;DHT22;1858;48.716;9.648;2023-03-23T15:24:20;19.30;99.90
3684;DHT22;1858;48.716;9.648;2023-03-23T15:26:49;19.20;99.90
3684;DHT22;1858;48.716;9.648;2023-03-23T15:29:22;19.30;99.90
3684;DHT22;1858;48.716;9.648;2023-03-23T15:31:53;19.30;99.90
3684;DHT22;1858;48.716;9.648;2023-03-23T15:34:37;19.40;99.90
3684;DHT22;1858;48.716;9.648;2023-03-23T15:37:21;19.30;99.90
3684;DHT22;1858;48.716;9.648;2023-03-23T15:39:50;19.40;99.90
3684;DHT22;1858;48.716;9.648;2023-03-23T15:42:29;19.30;99.90
3684;DHT22;1858;48.716;9.648;2023-03-23T15:50:20;19.20;99.90
3684;DHT22;1858;48.716;9.648;2023-03-23T15:52:49;19.20;99.90
3684;DHT22;1858;48.716;9.648;2023-03-23T15:55:34;19.00;99.90
3684;DHT22;1858;48.716;9.648;2023-03-23T15:58:00;19.00;99.90
3684;DHT22;1858;48.716;9.648;2023-03-23T16:00:29;18.90;99.90
3684;DHT22;1858;48.716;9.648;2023-03-23T16:03:03;18.90;99.90
3684;DHT22;1858;48.716;9.648;2023-03-23T16:05:32;18.90;99.90
3684;DHT22;1858;48.716;9.648;2023-03-23T16:08:07;18.90;99.90
3684;DHT22;1858;48.716;9.648;2023-03-23T16:10:36;18.80;99.90
3684;DHT22;1858;48.716;9.648;2023-03-23T16:13:05;18.80;99.90
3684;DHT22;1858;48.716;9.648;2023-03-23T16:15:33;18.70;99.90
3684;DHT22;1858;48.716;9.648;2023-03-23T16:18:03;18.60;99.90
3684;DHT22;1858;48.716;9.648;2023-03-23T16:20:31;18.50;99.90
3684;DHT22;1858;48.716;9.648;2023-03-23T16:23:00;18.50;99.90
3684;DHT22;1858;48.716;9.648;2023-03-23T16:25:32;18.40;99.90
3684;DHT22;1858;48.716;9.648;2023-03-23T16:28:07;18.40;99.90
3684;DHT22;1858;48.716;9.648;2023-03-23T16:30:33;18.30;99.90
3684;DHT22;1858;48.716;9.648;2023-03-23T16:33:05;18.20;99.90
3684;DHT22;1858;48.716;9.648;2023-03-23T16:35:34;18.20;99.90
3684;DHT22;1858;48.716;9.648;2023-03-23T16:38:04;18.10;99.90
3684;DHT22;1858;48.716;9.648;2023-03-23T16:40:34;18.10;99.90
3684;DHT22;1858;48.716;9.648;2023-03-23T16:43:03;17.90;99.90
3684;DHT22;1858;48.716;9.648;2023-03-23T16:45:32;17.90;99.90
3684;DHT22;1858;48.716;9.648;2023-03-23T16:48:01;17.90;99.90
3684;DHT22;1858;48.716;9.648;2023-03-23T16:50:32;17.90;99.90
3684;DHT22;1858;48.716;9.648;2023-03-23T16:53:01;17.90;99.90
3684;DHT22;1858;48.716;9.648;2023-03-23T16:55:30;17.90;99.90
3684;DHT22;1858;48.716;9.648;2023-03-23T16:57:59;17.90;99.90
3684;DHT22;1858;48.716;9.648;2023-03-23T17:00:29;17.90;99.90
3684;DHT22;1858;48.716;9.648;2023-03-23T17:02:58;17.90;99.90
3684;DHT22;1858;48.716;9.648;2023-03-23T17:05:28;17.70;99.90
3684;DHT22;1858;48.716;9.648;2023-03-23T17:07:57;17.80;99.90
3684;DHT22;1858;48.716;9.648;2023-03-23T17:10:27;17.70;99.90
3684;DHT22;1858;48.716;9.648;2023-03-23T17:12:55;17.70;99.90
3684;DHT22;1858;48.716;9.648;2023-03-23T17:15:24;17.60;99.90
3684;DHT22;1858;48.716;9.648;2023-03-23T17:17:53;17.60;99.90
3684;DHT22;1858;48.716;9.648;2023-03-23T17:20:23;17.60;99.90
3684;DHT22;1858;48.716;9.648;2023-03-23T17:22:52;17.50;99.90
3684;DHT22;1858;48.716;9.648;2023-03-23T17:25:22;17.50;99.90
3684;DHT22;1858;48.716;9.648;2023-03-23T17:27:52;17.50;99.90
3684;DHT22;1858;48.716;9.648;2023-03-23T17:30:21;17.50;99.90
3684;DHT22;1858;48.716;9.648;2023-03-23T17:32:50;17.50;99.90
3684;DHT22;1858;48.716;9.648;2023-03-23T17:35:19;17.40;99.90
3684;DHT22;1858;48.716;9.648;2023-03-23T17:37:48;17.40;99.90
3684;DHT22;1858;48.716;9.648;2023-03-23T17:40:19;17.40;99.90
3684;DHT22;1858;48.716;9.648;2023-03-23T17:42:48;17.30;99.90
3684;DHT22;1858;48.716;9.648;2023-03-23T17:45:18;17.20;99.90
3684;DHT22;1858;48.716;9.648;2023-03-23T17:47:48;17.20;99.90
3684;DHT22;1858;48.716;9.648;2023-03-23T17:50:18;17.20;99.90
3684;DHT22;1858;48.716;9.648;2023-03-23T17:52:46;17.20;99.90
3684;DHT22;1858;48.716;9.648;2023-03-23T17:55:16;17.00;99.90
3684;DHT22;1858;48.716;9.648;2023-03-23T17:57:45;17.00;99.90
3684;DHT22;1858;48.716;9.648;2023-03-23T18:00:17;17.00;99.90
3684;DHT22;1858;48.716;9.648;2023-03-23T18:02:47;17.00;99.90
3684;DHT22;1858;48.716;9.648;2023-03-23T18:05:17;17.00;99.90
3684;DHT22;1858;48.716;9.648;2023-03-23T18:07:45;17.00;99.90
3684;DHT22;1858;48.716;9.648;2023-03-23T18:10:14;16.90;99.90
3684;DHT22;1858;48.716;9.648;2023-03-23T18:12:47;16.90;99.90
3684;DHT22;1858;48.716;9.648;2023-03-23T18:15:15;16.90;99.90
3684;DHT22;1858;48.716;9.648;2023-03-23T18:17:47;16.90;99.90
3684;DHT22;1858;48.716;9.648;2023-03-23T18:20:17;16.80;99.90
3684;DHT22;1858;48.716;9.648;2023-03-23T18:22:46;16.80;99.90
3684;DHT22;1858;48.716;9.648;2023-03-23T18:25:24;16.80;99.90
3684;DHT22;1858;48.716;9.648;2023-03-23T18:27:47;16.80;99.90
3684;DHT22;1858;48.716;9.648;2023-03-23T18:30:18;16.80;99.90
3684;DHT22;1858;48.716;9.648;2023-03-23T18:32:46;16.80;99.90
3684;DHT22;1858;48.716;9.648;2023-03-23T18:35:15;16.80;99.90
3684;DHT22;1858;48.716;9.648;2023-03-23T18:37:45;16.80;99.90
3684;DHT22;1858;48.716;9.648;2023-03-23T18:40:16;16.80;99.90
3684;DHT22;1858;48.716;9.648;2023-03-23T18:42:47;16.80;99.90
3684;DHT22;1858;48.716;9.648;2023-03-23T18:45:16;16.80;99.90
3684;DHT22;1858;48.716;9.648;2023-03-23T18:47:47;16.80;99.90
3684;DHT22;1858;48.716;9.648;2023-03-23T18:50:16;16.80;99.90
3684;DHT22;1858;48.716;9.648;2023-03-23T18:52:44;16.80;99.90
3684;DHT22;1858;48.716;9.648;2023-03-23T18:55:13;16.90;99.90
3684;DHT22;1858;48.716;9.648;2023-03-23T18:57:42;16.90;99.90
3684;DHT22;1858;48.716;9.648;2023-03-23T19:00:13;16.80;99.90
3684;DHT22;1858;48.716;9.648;2023-03-23T19:02:42;16.80;99.90
3684;DHT22;1858;48.716;9.648;2023-03-23T19:05:10;16.80;99.90
3684;DHT22;1858;48.716;9.648;2023-03-23T19:07:39;16.90;99.90
3684;DHT22;1858;48.716;9.648;2023-03-23T19:10:09;16.90;99.90
3684;DHT22;1858;48.716;9.648;2023-03-23T19:12:38;16.80;99.90
3684;DHT22;1858;48.716;9.648;2023-03-23T19:15:09;16.80;99.90
3684;DHT22;1858;48.716;9.648;2023-03-23T19:17:39;16.80;99.90
3684;DHT22;1858;48.716;9.648;2023-03-23T19:20:14;16.80;99.90
3684;DHT22;1858;48.716;9.648;2023-03-23T19:22:42;16.80;99.90
3684;DHT22;1858;48.716;9.648;2023-03-23T19:25:10;16.80;99.90
3684;DHT22;1858;48.716;9.648;2023-03-23T19:27:39;16.80;99.90
3684;DHT22;1858;48.716;9.648;2023-03-23T19:30:09;16.70;99.90
3684;DHT22;1858;48.716;9.648;2023-03-23T19:32:40;16.70;99.90
3684;DHT22;1858;48.716;9.648;2023-03-23T19:35:09;16.80;99.90
3684;DHT22;1858;48.716;9.648;2023-03-23T19:37:38;16.80;99.90
3684;DHT22;1858;48.716;9.648;2023-03-23T19:40:11;16.80;99.90
3684;DHT22;1858;48.716;9.648;2023-03-23T19:42:40;16.80;99.90
3684;DHT22;1858;48.716;9.648;2023-03-23T19:45:11;16.80;99.90
3684;DHT22;1858;48.716;9.648;2023-03-23T19:47:39;16.80;99.90
3684;DHT22;1858;48.716;9.648;2023-03-23T19:50:15;16.80;99.90
3684;DHT22;1858;48.716;9.648;2023-03-23T19:52:44;16.80;99.90
3684;DHT22;1858;48.716;9.648;2023-03-23T19:55:16;16.80;99.90
3684;DHT22;1858;48.716;9.648;2023-03-23T19:57:44;16.70;99.90
3684;DHT22;1858;48.716;9.648;2023-03-23T20:00:15;16.80;99.90
3684;DHT22;1858;48.716;9.648;2023-03-23T20:02:47;16.80;99.90
3684;DHT22;1858;48.716;9.648;2023-03-23T20:05:22;16.70;99.90
3684;DHT22;1858;48.716;9.648;2023-03-23T20:07:53;16.70;99.90
3684;DHT22;1858;48.716;9.648;2023-03-23T20:10:22;16.70;99.90
3684;DHT22;1858;48.716;9.648;2023-03-23T20:12:50;16.70;99.90
3684;DHT22;1858;48.716;9.648;2023-03-23T20:15:19;16.70;99.90
3684;DHT22;1858;48.716;9.648;2023-03-23T20:17:49;16.80;99.90
3684;DHT22;1858;48.716;9.648;2023-03-23T20:20:18;16.70;99.90
3684;DHT22;1858;48.716;9.648;2023-03-23T20:22:50;16.70;99.90
3684;DHT22;1858;48.716;9.648;2023-03-23T20:25:20;16.70;99.90
3684;DHT22;1858;48.716;9.648;2023-03-23T20:27:49;16.70;99.90
3684;DHT22;1858;48.716;9.648;2023-03-23T20:30:18;16.70;99.90
3684;DHT22;1858;48.716;9.648;2023-03-23T20:32:46;16.70;99.90
3684;DHT22;1858;48.716;9.648;2023-03-23T20:35:15;16.70;99.90
3684;DHT22;1858;48.716;9.648;2023-03-23T20:37:44;16.60;99.90
3684;DHT22;1858;48.716;9.648;2023-03-23T20:40:13;16.60;99.90
3684;DHT22;1858;48.716;9.648;2023-03-23T20:42:45;16.60;99.90
3684;DHT22;1858;48.716;9.648;2023-03-23T20:45:15;16.50;99.90
3684;DHT22;1858;48.716;9.648;2023-03-23T20:47:46;16.50;99.90
3684;DHT22;1858;48.716;9.648;2023-03-23T20:50:17;16.30;99.90
3684;DHT22;1858;48.716;9.648;2023-03-23T20:52:46;16.30;99.90
3684;DHT22;1858;48.716;9.648;2023-03-23T20:55:15;16.30;99.90
3684;DHT22;1858;48.716;9.648;2023-03-23T20:57:44;16.30;99.90
3684;DHT22;1858;48.716;9.648;2023-03-23T21:00:13;16.20;99.90
3684;DHT22;1858;48.716;9.648;2023-03-23T21:02:46;16.10;99.90
3684;DHT22;1858;48.716;9.648;2023-03-23T21:05:17;16.10;99.90
3684;DHT22;1858;48.716;9.648;2023-03-23T21:07:47;16.10;99.90
3684;DHT22;1858;48.716;9.648;2023-03-23T21:10:17;16.00;99.90
3684;DHT22;1858;48.716;9.648;2023-03-23T21:12:48;16.00;99.90
3684;DHT22;1858;48.716;9.648;2023-03-23T21:15:18;16.00;99.90
3684;DHT22;1858;48.716;9.648;2023-03-23T21:17:47;16.00;99.90
3684;DHT22;1858;48.716;9.648;2023-03-23T21:20:17;16.00;99.90
3684;DHT22;1858;48.716;9.648;2023-03-23T21:22:47;16.10;99.90
3684;DHT22;1858;48.716;9.648;2023-03-23T21:25:16;16.10;99.90
3684;DHT22;1858;48.716;9.648;2023-03-23T21:27:47;16.10;99.90
3684;DHT22;1858;48.716;9.648;2023-03-23T21:30:16;16.10;99.90
3684;DHT22;1858;48.716;9.648;2023-03-23T21:32:44;16.10;99.90
3684;DHT22;1858;48.716;9.648;2023-03-23T21:35:15;16.10;99.90
3684;DHT22;1858;48.716;9.648;2023-03-23T21:37:45;16.10;99.90
3684;DHT22;1858;48.716;9.648;2023-03-23T21:40:16;16.10;99.90